Latest Weather Observations for Spitfire Channel

IDQ60901

Issued at 9:21 pm EST Tuesday 28 June 2016 (issued every 10 minutes, with the page automatically refreshed every 10 minutes)

About weather observations | Map of Brisbane area stations | Latest observations for Brisbane area | Other Formats
Station Details ID: 040927 Name: SPITFIRE CHANNEL BEACON Lat: -27.05 Lon: 153.27 Height: 7.0 m
Data from the previous 72 hours. | See also: Recent months for locations in Queensland
Date/Time
EST
Temp
°C
App
Temp
°C
Dew
Point
°C
Rel
Hum
%
Delta-T
°C
Wind Press
QNH
hPa
Press
MSL
hPa
Rain since
9am
mm
Dir  Spd
km/h
Gust
km/h
Spd
kts
Gust
kts
28/09:00pm - - - - - SW 22 26 12 14 - - -
28/08:30pm - - - - - SW 20 24 11 13 - - -
28/08:00pm - - - - - SW 20 26 11 14 - - -
28/07:30pm - - - - - SW 22 26 12 14 - - -
28/07:00pm - - - - - WSW 15 20 8 11 - - -
28/06:30pm - - - - - WSW 15 20 8 11 - - -
28/06:00pm - - - - - WSW 19 22 10 12 - - -
28/05:30pm - - - - - WSW 17 19 9 10 - - -
28/05:00pm - - - - - WSW 17 20 9 11 - - -
28/04:30pm - - - - - WSW 19 20 10 11 - - -
28/04:00pm - - - - - SW 19 24 10 13 - - -
28/03:30pm - - - - - SW 22 26 12 14 - - -
28/03:00pm - - - - - SW 22 28 12 15 - - -
28/02:30pm - - - - - SW 22 28 12 15 - - -
28/02:00pm - - - - - SW 22 28 12 15 - - -
28/01:30pm - - - - - SW 20 28 11 15 - - -
28/01:00pm - - - - - WSW 22 30 12 16 - - -
28/12:30pm - - - - - SW 24 28 13 15 - - -
28/12:00pm - - - - - SW 22 28 12 15 - - -
28/11:30am - - - - - SW 24 32 13 17 - - -
28/11:00am - - - - - SW 26 33 14 18 - - -
28/10:30am - - - - - SW 26 33 14 18 - - -
28/10:00am - - - - - SW 30 39 16 21 - - -
28/09:30am - - - - - WSW 33 43 18 23 - - -
28/09:00am - - - - - SW 37 43 20 23 - - -
28/08:30am - - - - - SW 37 48 20 26 - - -
28/08:05am - - - - - SW 33 52 18 28 - - -
28/08:00am - - - - - SW 35 52 19 28 - - -
28/07:30am - - - - - SW 35 44 19 24 - - -
28/07:00am - - - - - SW 32 41 17 22 - - -
28/06:30am - - - - - SW 30 37 16 20 - - -
28/06:00am - - - - - SW 35 46 19 25 - - -
28/05:30am - - - - - SW 30 37 16 20 - - -
28/05:00am - - - - - SW 33 46 18 25 - - -
28/04:30am - - - - - SW 33 43 18 23 - - -
28/04:00am - - - - - SW 26 37 14 20 - - -
28/03:30am - - - - - SW 20 33 11 18 - - -
28/03:00am - - - - - WSW 30 39 16 21 - - -
28/02:49am - - - - - WSW 35 54 19 29 - - -
28/02:30am - - - - - WSW 37 52 20 28 - - -
28/02:00am - - - - - WSW 35 46 19 25 - - -
28/01:30am - - - - - SW 32 39 17 21 - - -
28/01:00am - - - - - SW 37 48 20 26 - - -
28/12:30am - - - - - SW 44 56 24 30 - - -
28/12:00am - - - - - SW 39 48 21 26 - - -
 
Date/Time
EST
Temp
°C
App
Temp
°C
Dew
Point
°C
Rel
Hum
%
Delta-T
°C
Wind Press
QNH
hPa
Press
MSL
hPa
Rain since
9am
mm
Dir  Spd
km/h
Gust
km/h
Spd
kts
Gust
kts
27/11:30pm - - - - - SW 37 46 20 25 - - -
27/11:00pm - - - - - SW 32 39 17 21 - - -
27/10:30pm - - - - - SW 28 33 15 18 - - -
27/10:00pm - - - - - SW 28 35 15 19 - - -
27/09:30pm - - - - - SW 28 37 15 20 - - -
27/09:00pm - - - - - SW 32 39 17 21 - - -
27/08:30pm - - - - - SW 39 50 21 27 - - -
27/08:00pm - - - - - SW 32 44 17 24 - - -
27/07:30pm - - - - - SW 35 48 19 26 - - -
27/07:00pm - - - - - SW 43 56 23 30 - - -
27/06:46pm - - - - - SW 35 61 19 33 - - -
27/06:30pm - - - - - SW 37 46 20 25 - - -
27/06:00pm - - - - - SW 33 41 18 22 - - -
27/05:30pm - - - - - WSW 32 35 17 19 - - -
27/05:00pm - - - - - WSW 24 32 13 17 - - -
27/04:30pm - - - - - WSW 30 39 16 21 - - -
27/04:00pm - - - - - WSW 24 30 13 16 - - -
27/03:30pm - - - - - WSW 17 32 9 17 - - -
27/03:00pm - - - - - W 32 37 17 20 - - -
27/02:30pm - - - - - W 24 30 13 16 - - -
27/02:00pm - - - - - WSW 28 37 15 20 - - -
27/01:30pm - - - - - WSW 20 24 11 13 - - -
27/01:00pm - - - - - WSW 24 32 13 17 - - -
27/12:30pm - - - - - WSW 22 33 12 18 - - -
27/12:00pm - - - - - W 9 13 5 7 - - -
27/11:30am - - - - - WSW 6 7 3 4 - - -
27/11:00am - - - - - WSW 9 13 5 7 - - -
27/10:30am - - - - - W 7 9 4 5 - - -
27/10:00am - - - - - W 7 9 4 5 - - -
27/09:30am - - - - - W 9 11 5 6 - - -
27/09:00am - - - - - WNW 11 13 6 7 - - -
27/08:30am - - - - - NW 13 15 7 8 - - -
27/08:00am - - - - - NW 13 17 7 9 - - -
27/07:30am - - - - - WSW 22 26 12 14 - - -
27/07:00am - - - - - W 15 20 8 11 - - -
27/06:30am - - - - - WSW 7 11 4 6 - - -
27/06:00am - - - - - WSW 13 17 7 9 - - -
27/05:30am - - - - - W 13 15 7 8 - - -
27/05:00am - - - - - W 9 11 5 6 - - -
27/04:30am - - - - - WSW 13 19 7 10 - - -
27/04:00am - - - - - W 11 13 6 7 - - -
27/03:30am - - - - - NW 17 22 9 12 - - -
27/03:00am - - - - - NNW 17 20 9 11 - - -
27/02:30am - - - - - NNW 11 13 6 7 - - -
27/02:00am - - - - - CALM 0 2 0 1 - - -
27/01:30am - - - - - WSW 2 4 1 2 - - -
27/01:00am - - - - - SW 7 9 4 5 - - -
27/12:30am - - - - - SW 9 9 5 5 - - -
27/12:00am - - - - - SW 11 13 6 7 - - -
 
Date/Time
EST
Temp
°C
App
Temp
°C
Dew
Point
°C
Rel
Hum
%
Delta-T
°C
Wind Press
QNH
hPa
Press
MSL
hPa
Rain since
9am
mm
Dir  Spd
km/h
Gust
km/h
Spd
kts
Gust
kts
26/11:30pm - - - - - SW 9 11 5 6 - - -
26/11:00pm - - - - - SW 9 11 5 6 - - -
26/10:30pm - - - - - SW 6 7 3 4 - - -
26/10:00pm - - - - - W 6 9 3 5 - - -
26/09:30pm - - - - - NNW 4 4 2 2 - - -
26/09:00pm - - - - - CALM 0 0 0 0 - - -
26/08:30pm - - - - - CALM 0 0 0 0 - - -
26/08:00pm - - - - - CALM 0 0 0 0 - - -
26/07:30pm - - - - - CALM 0 0 0 0 - - -
26/07:00pm - - - - - SSW 2 4 1 2 - - -
26/06:30pm - - - - - CALM 0 0 0 0 - - -
26/06:00pm - - - - - SE 4 4 2 2 - - -
26/05:30pm - - - - - SE 6 7 3 4 - - -
26/05:00pm - - - - - SSE 6 7 3 4 - - -
26/04:30pm - - - - - SSE 6 7 3 4 - - -
26/04:00pm - - - - - SSE 6 7 3 4 - - -
26/03:30pm - - - - - SE 6 6 3 3 - - -
26/03:00pm - - - - - SE 4 6 2 3 - - -
26/02:30pm - - - - - SSE 6 7 3 4 - - -
26/02:00pm - - - - - SSE 4 6 2 3 - - -
26/01:30pm - - - - - S 6 7 3 4 - - -
26/01:00pm - - - - - S 6 9 3 5 - - -
26/12:30pm - - - - - S 9 13 5 7 - - -
26/12:00pm - - - - - S 13 17 7 9 - - -
26/11:30am - - - - - S 15 19 8 10 - - -
26/11:00am - - - - - S 15 19 8 10 - - -
26/10:30am - - - - - S 13 17 7 9 - - -
26/10:00am - - - - - S 11 15 6 8 - - -
26/09:30am - - - - - S 9 13 5 7 - - -
26/09:00am - - - - - S 9 15 5 8 - - -
26/08:30am - - - - - SSW 11 15 6 8 - - -
26/08:00am - - - - - SSW 13 15 7 8 - - -
26/07:30am - - - - - SW 15 17 8 9 - - -
26/07:00am - - - - - WSW 17 20 9 11 - - -
26/06:30am - - - - - SW 15 17 8 9 - - -
26/06:00am - - - - - SW 11 15 6 8 - - -
26/05:30am - - - - - SW 15 17 8 9 - - -
26/05:00am - - - - - SW 13 17 7 9 - - -
26/04:30am - - - - - SSW 15 17 8 9 - - -
26/04:00am - - - - - SW 11 15 6 8 - - -
26/03:30am - - - - - SW 11 15 6 8 - - -
26/03:00am - - - - - SW 13 15 7 8 - - -
26/02:30am - - - - - WSW 15 17 8 9 - - -
26/02:00am - - - - - WSW 13 17 7 9 - - -
26/01:30am - - - - - WSW 11 15 6 8 - - -
26/01:00am - - - - - WSW 11 15 6 8 - - -
26/12:30am - - - - - W 13 17 7 9 - - -
26/12:00am - - - - - WSW 13 17 7 9 - - -
 
Date/Time
EST
Temp
°C
App
Temp
°C
Dew
Point
°C
Rel
Hum
%
Delta-T
°C
Wind Press
QNH
hPa
Press
MSL
hPa
Rain since
9am
mm
Dir  Spd
km/h
Gust
km/h
Spd
kts
Gust
kts
25/11:30pm - - - - - W 9 13 5 7 - - -
25/11:00pm - - - - - WSW 13 19 7 10 - - -
25/10:30pm - - - - - SW 13 17 7 9 - - -
25/10:00pm - - - - - SW 11 15 6 8 - - -
25/09:30pm - - - - - SW 11 15 6 8 - - -

Latest Capital City Observations: Canberra | Sydney | Melbourne | Brisbane | Adelaide | Perth | Hobart | Darwin

Other Formats:

Comma delimited format used in spreadsheet applications
http://www.bom.gov.au/fwo/IDQ60901/IDQ60901.94581.axf

JavaScript Object Notation format (JSON) in row-major order
http://www.bom.gov.au/fwo/IDQ60901/IDQ60901.94581.json